Terminal Aerodrome Forecast
Issued by NWS Brownsville, TX

Home | Current Version | Previous Version | Text Only | Print | Product List | Glossary On
Versions: 1 2 3 4 5 6 7 8 9 10 11 12 13 14
856
FTUS44 KBRO 281123
TAFMFE
TAF
KMFE 281123Z 2812/2912 15010KT P6SM SCT020 SCT200
      TEMPO 2812/2813 BKN020
     FM281500 13015G20KT P6SM SCT050 BKN150
     FM290200 14012KT P6SM FEW030 BKN200
     FM290600 16009KT P6SM FEW020 SCT200=

USA.gov is the U.S. government's official web portal to all federal, state and local government web resources and services.